sensor_id;sensor_type;location;lat;lon;timestamp;temperature;humidity
19037;DHT22;9651;49.138;8.900;2023-07-16T00:00:07;20.50;99.90
19037;DHT22;9651;49.138;8.900;2023-07-16T00:04:11;20.40;99.90
19037;DHT22;9651;49.138;8.900;2023-07-16T00:08:13;20.40;99.90
19037;DHT22;9651;49.138;8.900;2023-07-16T00:12:15;20.40;99.90
19037;DHT22;9651;49.138;8.900;2023-07-16T00:16:17;20.30;99.90
19037;DHT22;9651;49.138;8.900;2023-07-16T00:20:20;20.20;99.90
19037;DHT22;9651;49.138;8.900;2023-07-16T00:24:24;20.20;99.90
19037;DHT22;9651;49.138;8.900;2023-07-16T00:28:25;20.10;99.90
19037;DHT22;9651;49.138;8.900;2023-07-16T00:32:27;20.10;99.90
19037;DHT22;9651;49.138;8.900;2023-07-16T00:36:31;20.00;99.90
19037;DHT22;9651;49.138;8.900;2023-07-16T00:40:32;20.00;99.90
19037;DHT22;9651;49.138;8.900;2023-07-16T00:44:34;20.00;99.90
19037;DHT22;9651;49.138;8.900;2023-07-16T00:48:37;20.00;99.90
19037;DHT22;9651;49.138;8.900;2023-07-16T00:52:41;19.90;99.90
19037;DHT22;9651;49.138;8.900;2023-07-16T00:56:44;19.90;99.90
19037;DHT22;9651;49.138;8.900;2023-07-16T01:00:46;19.80;99.90
19037;DHT22;9651;49.138;8.900;2023-07-16T01:04:48;19.80;99.90
19037;DHT22;9651;49.138;8.900;2023-07-16T01:08:57;19.90;99.90
19037;DHT22;9651;49.138;8.900;2023-07-16T01:13:00;19.90;99.90
19037;DHT22;9651;49.138;8.900;2023-07-16T01:17:03;19.80;99.90
19037;DHT22;9651;49.138;8.900;2023-07-16T01:21:05;19.70;99.90
19037;DHT22;9651;49.138;8.900;2023-07-16T01:25:34;19.70;99.90
19037;DHT22;9651;49.138;8.900;2023-07-16T01:29:42;19.70;99.90
19037;DHT22;9651;49.138;8.900;2023-07-16T01:33:46;19.60;99.90
19037;DHT22;9651;49.138;8.900;2023-07-16T01:37:48;19.40;99.90
19037;DHT22;9651;49.138;8.900;2023-07-16T01:41:50;19.40;99.90
19037;DHT22;9651;49.138;8.900;2023-07-16T01:45:54;19.40;99.90
19037;DHT22;9651;49.138;8.900;2023-07-16T01:49:56;19.40;99.90
19037;DHT22;9651;49.138;8.900;2023-07-16T01:53:58;19.40;99.90
19037;DHT22;9651;49.138;8.900;2023-07-16T01:57:59;19.40;99.90
19037;DHT22;9651;49.138;8.900;2023-07-16T02:02:03;19.40;99.90
19037;DHT22;9651;49.138;8.900;2023-07-16T02:06:05;19.40;99.90
19037;DHT22;9651;49.138;8.900;2023-07-16T02:10:08;19.40;99.90
19037;DHT22;9651;49.138;8.900;2023-07-16T02:14:10;19.40;99.90
19037;DHT22;9651;49.138;8.900;2023-07-16T02:18:15;19.30;99.90
19037;DHT22;9651;49.138;8.900;2023-07-16T02:22:17;19.30;99.90
19037;DHT22;9651;49.138;8.900;2023-07-16T02:26:18;19.30;99.90
19037;DHT22;9651;49.138;8.900;2023-07-16T02:30:20;19.30;99.90
19037;DHT22;9651;49.138;8.900;2023-07-16T02:34:24;19.20;99.90
19037;DHT22;9651;49.138;8.900;2023-07-16T02:38:25;19.30;99.90
19037;DHT22;9651;49.138;8.900;2023-07-16T02:42:29;19.20;99.90
19037;DHT22;9651;49.138;8.900;2023-07-16T02:46:31;19.20;99.90
19037;DHT22;9651;49.138;8.900;2023-07-16T02:50:35;19.10;99.90
19037;DHT22;9651;49.138;8.900;2023-07-16T02:54:37;19.10;99.90
19037;DHT22;9651;49.138;8.900;2023-07-16T02:58:39;19.00;99.90
19037;DHT22;9651;49.138;8.900;2023-07-16T03:02:41;19.00;99.90
19037;DHT22;9651;49.138;8.900;2023-07-16T03:06:45;18.90;99.90
19037;DHT22;9651;49.138;8.900;2023-07-16T03:10:46;18.90;99.90
19037;DHT22;9651;49.138;8.900;2023-07-16T03:14:50;18.90;99.90
19037;DHT22;9651;49.138;8.900;2023-07-16T03:18:54;18.90;99.90
19037;DHT22;9651;49.138;8.900;2023-07-16T03:22:58;18.90;99.90
19037;DHT22;9651;49.138;8.900;2023-07-16T03:26:59;18.90;99.90
19037;DHT22;9651;49.138;8.900;2023-07-16T03:31:02;18.80;99.90
19037;DHT22;9651;49.138;8.900;2023-07-16T03:35:05;18.70;99.90
19037;DHT22;9651;49.138;8.900;2023-07-16T03:39:09;18.70;99.90
19037;DHT22;9651;49.138;8.900;2023-07-16T03:43:11;18.80;99.90
19037;DHT22;9651;49.138;8.900;2023-07-16T03:47:13;18.70;99.90
19037;DHT22;9651;49.138;8.900;2023-07-16T03:51:15;18.70;99.90
19037;DHT22;9651;49.138;8.900;2023-07-16T03:55:19;18.80;99.90
19037;DHT22;9651;49.138;8.900;2023-07-16T03:59:22;18.80;99.90
19037;DHT22;9651;49.138;8.900;2023-07-16T04:03:23;18.80;99.90
19037;DHT22;9651;49.138;8.900;2023-07-16T04:07:25;18.80;99.90
19037;DHT22;9651;49.138;8.900;2023-07-16T04:11:29;18.70;99.90
19037;DHT22;9651;49.138;8.900;2023-07-16T04:15:30;18.70;99.90
19037;DHT22;9651;49.138;8.900;2023-07-16T04:19:32;18.70;99.90
19037;DHT22;9651;49.138;8.900;2023-07-16T04:23:35;18.70;99.90
19037;DHT22;9651;49.138;8.900;2023-07-16T04:27:39;18.70;99.90
19037;DHT22;9651;49.138;8.900;2023-07-16T04:31:42;18.70;99.90
19037;DHT22;9651;49.138;8.900;2023-07-16T04:35:44;18.70;99.90
19037;DHT22;9651;49.138;8.900;2023-07-16T04:39:46;18.80;99.90
19037;DHT22;9651;49.138;8.900;2023-07-16T04:43:49;18.70;99.90
19037;DHT22;9651;49.138;8.900;2023-07-16T04:47:51;18.70;99.90
19037;DHT22;9651;49.138;8.900;2023-07-16T04:51:52;18.80;99.90
19037;DHT22;9651;49.138;8.900;2023-07-16T04:55:54;18.80;99.90
19037;DHT22;9651;49.138;8.900;2023-07-16T04:59:58;18.70;99.90
19037;DHT22;9651;49.138;8.900;2023-07-16T05:04:00;18.70;99.90
19037;DHT22;9651;49.138;8.900;2023-07-16T05:08:02;18.80;99.90
19037;DHT22;9651;49.138;8.900;2023-07-16T05:12:05;18.90;99.90
19037;DHT22;9651;49.138;8.900;2023-07-16T05:16:08;19.00;99.90
19037;DHT22;9651;49.138;8.900;2023-07-16T05:20:11;19.20;99.90
19037;DHT22;9651;49.138;8.900;2023-07-16T05:24:12;19.10;99.90
19037;DHT22;9651;49.138;8.900;2023-07-16T05:28:15;19.30;99.90
19037;DHT22;9651;49.138;8.900;2023-07-16T05:32:18;19.30;99.90
19037;DHT22;9651;49.138;8.900;2023-07-16T05:36:20;19.30;99.90
19037;DHT22;9651;49.138;8.900;2023-07-16T05:40:22;19.20;99.90
19037;DHT22;9651;49.138;8.900;2023-07-16T05:44:24;19.30;99.90
19037;DHT22;9651;49.138;8.900;2023-07-16T05:48:27;19.50;99.90
19037;DHT22;9651;49.138;8.900;2023-07-16T05:52:29;19.80;99.90
19037;DHT22;9651;49.138;8.900;2023-07-16T05:56:31;19.90;99.90
19037;DHT22;9651;49.138;8.900;2023-07-16T06:00:32;20.00;99.90
19037;DHT22;9651;49.138;8.900;2023-07-16T06:04:36;20.20;99.90
19037;DHT22;9651;49.138;8.900;2023-07-16T06:08:38;20.20;99.90
19037;DHT22;9651;49.138;8.900;2023-07-16T06:12:40;20.30;99.90
19037;DHT22;9651;49.138;8.900;2023-07-16T06:16:42;20.50;99.90
19037;DHT22;9651;49.138;8.900;2023-07-16T06:20:45;20.50;99.90
19037;DHT22;9651;49.138;8.900;2023-07-16T06:24:47;20.60;99.90
19037;DHT22;9651;49.138;8.900;2023-07-16T06:28:49;20.40;99.90
19037;DHT22;9651;49.138;8.900;2023-07-16T06:32:51;20.40;99.90
19037;DHT22;9651;49.138;8.900;2023-07-16T06:36:54;20.30;99.90
19037;DHT22;9651;49.138;8.900;2023-07-16T06:40:56;20.20;99.90
19037;DHT22;9651;49.138;8.900;2023-07-16T06:44:57;20.20;99.90
19037;DHT22;9651;49.138;8.900;2023-07-16T06:48:59;20.60;99.90
19037;DHT22;9651;49.138;8.900;2023-07-16T06:53:03;21.30;99.90
19037;DHT22;9651;49.138;8.900;2023-07-16T06:57:05;22.10;99.90
19037;DHT22;9651;49.138;8.900;2023-07-16T07:01:07;22.70;99.90
19037;DHT22;9651;49.138;8.900;2023-07-16T07:05:09;23.30;99.90
19037;DHT22;9651;49.138;8.900;2023-07-16T07:09:12;23.10;99.90
19037;DHT22;9651;49.138;8.900;2023-07-16T07:13:14;23.40;99.90
19037;DHT22;9651;49.138;8.900;2023-07-16T07:17:16;23.70;99.90
19037;DHT22;9651;49.138;8.900;2023-07-16T07:21:18;24.10;99.90
19037;DHT22;9651;49.138;8.900;2023-07-16T07:25:21;24.30;99.90
19037;DHT22;9651;49.138;8.900;2023-07-16T07:29:23;24.40;99.90
19037;DHT22;9651;49.138;8.900;2023-07-16T07:33:25;24.80;99.90
19037;DHT22;9651;49.138;8.900;2023-07-16T07:37:27;25.20;99.90
19037;DHT22;9651;49.138;8.900;2023-07-16T07:41:30;25.70;99.90
19037;DHT22;9651;49.138;8.900;2023-07-16T07:45:32;26.10;99.90
19037;DHT22;9651;49.138;8.900;2023-07-16T07:49:34;26.80;99.90
19037;DHT22;9651;49.138;8.900;2023-07-16T07:53:36;26.70;99.90
19037;DHT22;9651;49.138;8.900;2023-07-16T07:57:39;27.20;99.90
19037;DHT22;9651;49.138;8.900;2023-07-16T08:01:41;26.90;99.90
19037;DHT22;9651;49.138;8.900;2023-07-16T08:05:43;27.30;99.90
19037;DHT22;9651;49.138;8.900;2023-07-16T08:09:45;27.20;99.90
19037;DHT22;9651;49.138;8.900;2023-07-16T08:13:49;26.30;99.90
19037;DHT22;9651;49.138;8.900;2023-07-16T08:17:51;26.10;99.90
19037;DHT22;9651;49.138;8.900;2023-07-16T08:21:53;26.00;99.90
19037;DHT22;9651;49.138;8.900;2023-07-16T08:25:54;25.90;99.90
19037;DHT22;9651;49.138;8.900;2023-07-16T08:29:58;26.00;99.90
19037;DHT22;9651;49.138;8.900;2023-07-16T08:34:00;25.80;99.90
19037;DHT22;9651;49.138;8.900;2023-07-16T08:38:02;25.70;99.90
19037;DHT22;9651;49.138;8.900;2023-07-16T08:42:04;25.30;99.90
19037;DHT22;9651;49.138;8.900;2023-07-16T08:46:08;25.20;99.90
19037;DHT22;9651;49.138;8.900;2023-07-16T08:50:11;25.10;99.90
19037;DHT22;9651;49.138;8.900;2023-07-16T08:54:14;25.90;99.90
19037;DHT22;9651;49.138;8.900;2023-07-16T08:58:17;27.00;99.90
19037;DHT22;9651;49.138;8.900;2023-07-16T09:02:23;27.70;99.90
19037;DHT22;9651;49.138;8.900;2023-07-16T09:06:25;28.30;99.90
19037;DHT22;9651;49.138;8.900;2023-07-16T09:10:26;28.60;99.90
19037;DHT22;9651;49.138;8.900;2023-07-16T09:14:28;29.40;99.90
19037;DHT22;9651;49.138;8.900;2023-07-16T09:18:32;29.10;99.90
19037;DHT22;9651;49.138;8.900;2023-07-16T09:22:34;29.30;99.90
19037;DHT22;9651;49.138;8.900;2023-07-16T09:26:39;29.80;99.90
19037;DHT22;9651;49.138;8.900;2023-07-16T09:30:41;30.80;98.60
19037;DHT22;9651;49.138;8.900;2023-07-16T09:34:48;31.70;97.10
19037;DHT22;9651;49.138;8.900;2023-07-16T09:38:52;32.40;97.40
19037;DHT22;9651;49.138;8.900;2023-07-16T09:42:55;32.80;96.00
19037;DHT22;9651;49.138;8.900;2023-07-16T09:46:57;32.90;95.20
19037;DHT22;9651;49.138;8.900;2023-07-16T09:51:01;32.90;94.70
19037;DHT22;9651;49.138;8.900;2023-07-16T09:55:04;33.10;94.50
19037;DHT22;9651;49.138;8.900;2023-07-16T09:59:10;33.50;93.30
19037;DHT22;9651;49.138;8.900;2023-07-16T10:03:15;34.20;92.00
19037;DHT22;9651;49.138;8.900;2023-07-16T10:07:22;33.90;90.70
19037;DHT22;9651;49.138;8.900;2023-07-16T10:11:24;34.10;90.70
19037;DHT22;9651;49.138;8.900;2023-07-16T10:15:27;34.20;88.60
19037;DHT22;9651;49.138;8.900;2023-07-16T10:19:29;33.30;87.80
19037;DHT22;9651;49.138;8.900;2023-07-16T10:23:39;33.20;87.40
19037;DHT22;9651;49.138;8.900;2023-07-16T10:27:41;33.70;85.30
19037;DHT22;9651;49.138;8.900;2023-07-16T10:31:43;32.70;86.80
19037;DHT22;9651;49.138;8.900;2023-07-16T10:35:46;33.30;86.50
19037;DHT22;9651;49.138;8.900;2023-07-16T10:39:50;34.30;85.50
19037;DHT22;9651;49.138;8.900;2023-07-16T10:43:52;35.20;81.90
19037;DHT22;9651;49.138;8.900;2023-07-16T10:47:54;35.90;79.50
19037;DHT22;9651;49.138;8.900;2023-07-16T10:51:59;36.00;77.70
19037;DHT22;9651;49.138;8.900;2023-07-16T10:56:03;36.20;75.60
19037;DHT22;9651;49.138;8.900;2023-07-16T11:00:09;37.00;73.10
19037;DHT22;9651;49.138;8.900;2023-07-16T11:04:13;36.90;72.10
19037;DHT22;9651;49.138;8.900;2023-07-16T11:08:21;36.90;71.30
19037;DHT22;9651;49.138;8.900;2023-07-16T11:12:25;36.70;70.40
19037;DHT22;9651;49.138;8.900;2023-07-16T11:16:27;36.80;69.50
19037;DHT22;9651;49.138;8.900;2023-07-16T11:20:34;38.00;68.70
19037;DHT22;9651;49.138;8.900;2023-07-16T11:24:37;37.20;64.60
19037;DHT22;9651;49.138;8.900;2023-07-16T11:28:41;37.10;65.90
19037;DHT22;9651;49.138;8.900;2023-07-16T11:32:46;38.10;65.90
19037;DHT22;9651;49.138;8.900;2023-07-16T11:36:49;38.90;65.00
19037;DHT22;9651;49.138;8.900;2023-07-16T11:40:51;38.60;62.10
19037;DHT22;9651;49.138;8.900;2023-07-16T11:44:54;38.70;61.00
19037;DHT22;9651;49.138;8.900;2023-07-16T11:48:56;37.80;61.80
19037;DHT22;9651;49.138;8.900;2023-07-16T11:53:00;38.30;61.30
19037;DHT22;9651;49.138;8.900;2023-07-16T11:57:02;39.20;59.10
19037;DHT22;9651;49.138;8.900;2023-07-16T12:01:06;39.80;58.50
19037;DHT22;9651;49.138;8.900;2023-07-16T12:05:08;39.90;57.10
19037;DHT22;9651;49.138;8.900;2023-07-16T12:09:10;39.50;57.80
19037;DHT22;9651;49.138;8.900;2023-07-16T12:13:12;40.10;55.20
19037;DHT22;9651;49.138;8.900;2023-07-16T12:17:15;40.20;55.50
19037;DHT22;9651;49.138;8.900;2023-07-16T12:21:17;40.70;55.30
19037;DHT22;9651;49.138;8.900;2023-07-16T12:25:18;40.60;54.20
19037;DHT22;9651;49.138;8.900;2023-07-16T12:29:21;40.00;54.90
19037;DHT22;9651;49.138;8.900;2023-07-16T12:33:24;40.00;54.70
19037;DHT22;9651;49.138;8.900;2023-07-16T12:37:26;40.90;53.70
19037;DHT22;9651;49.138;8.900;2023-07-16T12:41:28;41.10;52.50
19037;DHT22;9651;49.138;8.900;2023-07-16T12:45:30;40.90;53.30
19037;DHT22;9651;49.138;8.900;2023-07-16T12:49:33;41.50;52.60
19037;DHT22;9651;49.138;8.900;2023-07-16T12:53:35;40.70;52.00
19037;DHT22;9651;49.138;8.900;2023-07-16T12:57:37;40.60;51.90
19037;DHT22;9651;49.138;8.900;2023-07-16T13:01:39;41.20;51.40
19037;DHT22;9651;49.138;8.900;2023-07-16T13:05:42;41.30;51.00
19037;DHT22;9651;49.138;8.900;2023-07-16T13:09:45;41.60;50.20
19037;DHT22;9651;49.138;8.900;2023-07-16T13:13:47;42.70;49.80
19037;DHT22;9651;49.138;8.900;2023-07-16T13:17:49;42.60;49.20
19037;DHT22;9651;49.138;8.900;2023-07-16T13:21:52;43.10;48.40
19037;DHT22;9651;49.138;8.900;2023-07-16T13:25:54;43.20;48.10
19037;DHT22;9651;49.138;8.900;2023-07-16T13:29:56;42.90;47.30
19037;DHT22;9651;49.138;8.900;2023-07-16T13:33:58;42.40;47.10
19037;DHT22;9651;49.138;8.900;2023-07-16T13:38:01;42.80;46.80
19037;DHT22;9651;49.138;8.900;2023-07-16T13:42:04;42.50;46.90
19037;DHT22;9651;49.138;8.900;2023-07-16T13:46:07;43.20;46.90
19037;DHT22;9651;49.138;8.900;2023-07-16T13:50:09;43.90;46.10
19037;DHT22;9651;49.138;8.900;2023-07-16T13:54:12;44.60;45.60
19037;DHT22;9651;49.138;8.900;2023-07-16T13:58:14;43.40;45.70
19037;DHT22;9651;49.138;8.900;2023-07-16T14:02:16;42.90;45.40
19037;DHT22;9651;49.138;8.900;2023-07-16T14:06:18;42.70;46.20
19037;DHT22;9651;49.138;8.900;2023-07-16T14:10:22;41.80;46.60
19037;DHT22;9651;49.138;8.900;2023-07-16T14:14:23;42.40;47.00
19037;DHT22;9651;49.138;8.900;2023-07-16T14:18:25;42.10;46.60
19037;DHT22;9651;49.138;8.900;2023-07-16T14:22:27;43.00;45.70
19037;DHT22;9651;49.138;8.900;2023-07-16T14:26:30;43.60;45.20
19037;DHT22;9651;49.138;8.900;2023-07-16T14:30:32;43.70;45.10
19037;DHT22;9651;49.138;8.900;2023-07-16T14:34:34;42.80;45.10
19037;DHT22;9651;49.138;8.900;2023-07-16T14:38:36;41.30;46.60
19037;DHT22;9651;49.138;8.900;2023-07-16T14:42:40;41.80;46.30
19037;DHT22;9651;49.138;8.900;2023-07-16T14:46:43;42.30;45.70
19037;DHT22;9651;49.138;8.900;2023-07-16T14:50:48;42.90;45.80
19037;DHT22;9651;49.138;8.900;2023-07-16T14:54:51;42.20;44.70
19037;DHT22;9651;49.138;8.900;2023-07-16T14:58:54;39.80;46.10
19037;DHT22;9651;49.138;8.900;2023-07-16T15:02:56;39.30;46.80
19037;DHT22;9651;49.138;8.900;2023-07-16T15:06:58;39.80;46.70
19037;DHT22;9651;49.138;8.900;2023-07-16T15:11:00;38.70;47.00
19037;DHT22;9651;49.138;8.900;2023-07-16T15:15:04;37.60;48.30
19037;DHT22;9651;49.138;8.900;2023-07-16T15:19:06;36.80;49.00
19037;DHT22;9651;49.138;8.900;2023-07-16T15:23:09;38.10;48.90
19037;DHT22;9651;49.138;8.900;2023-07-16T15:27:12;38.30;48.90
19037;DHT22;9651;49.138;8.900;2023-07-16T15:31:24;38.60;48.40
19037;DHT22;9651;49.138;8.900;2023-07-16T15:35:29;38.70;49.00
19037;DHT22;9651;49.138;8.900;2023-07-16T15:39:31;39.20;48.30
19037;DHT22;9651;49.138;8.900;2023-07-16T15:43:33;39.60;48.20
19037;DHT22;9651;49.138;8.900;2023-07-16T15:47:36;38.40;48.10
19037;DHT22;9651;49.138;8.900;2023-07-16T15:51:38;37.70;48.70
19037;DHT22;9651;49.138;8.900;2023-07-16T15:55:41;38.30;49.10
19037;DHT22;9651;49.138;8.900;2023-07-16T15:59:43;38.70;48.10
19037;DHT22;9651;49.138;8.900;2023-07-16T16:03:46;39.00;48.60
19037;DHT22;9651;49.138;8.900;2023-07-16T16:08:10;39.30;48.00
19037;DHT22;9651;49.138;8.900;2023-07-16T16:12:12;37.80;48.40
19037;DHT22;9651;49.138;8.900;2023-07-16T16:16:14;34.80;50.50
19037;DHT22;9651;49.138;8.900;2023-07-16T16:20:18;33.10;52.10
19037;DHT22;9651;49.138;8.900;2023-07-16T16:24:20;32.90;53.40
19037;DHT22;9651;49.138;8.900;2023-07-16T16:28:21;34.10;52.60
19037;DHT22;9651;49.138;8.900;2023-07-16T16:32:23;35.00;51.20
19037;DHT22;9651;49.138;8.900;2023-07-16T16:36:27;35.40;51.90
19037;DHT22;9651;49.138;8.900;2023-07-16T16:40:29;35.30;51.00
19037;DHT22;9651;49.138;8.900;2023-07-16T16:44:31;35.00;51.00
19037;DHT22;9651;49.138;8.900;2023-07-16T16:48:33;34.80;51.60
19037;DHT22;9651;49.138;8.900;2023-07-16T16:52:38;33.90;52.00
19037;DHT22;9651;49.138;8.900;2023-07-16T16:56:39;32.90;53.20
19037;DHT22;9651;49.138;8.900;2023-07-16T17:00:43;32.10;53.50
19037;DHT22;9651;49.138;8.900;2023-07-16T17:04:45;31.30;54.50
19037;DHT22;9651;49.138;8.900;2023-07-16T17:08:49;30.60;55.50
19037;DHT22;9651;49.138;8.900;2023-07-16T17:12:51;30.70;55.70
19037;DHT22;9651;49.138;8.900;2023-07-16T17:16:52;30.90;55.40
19037;DHT22;9651;49.138;8.900;2023-07-16T17:20:54;30.50;55.80
19037;DHT22;9651;49.138;8.900;2023-07-16T17:24:58;29.70;56.80
19037;DHT22;9651;49.138;8.900;2023-07-16T17:29:00;29.20;58.20
19037;DHT22;9651;49.138;8.900;2023-07-16T17:33:02;28.90;58.40
19037;DHT22;9651;49.138;8.900;2023-07-16T17:37:04;28.70;58.70
19037;DHT22;9651;49.138;8.900;2023-07-16T17:41:07;28.30;59.20
19037;DHT22;9651;49.138;8.900;2023-07-16T17:45:10;28.10;59.60
19037;DHT22;9651;49.138;8.900;2023-07-16T17:49:12;27.90;60.10
19037;DHT22;9651;49.138;8.900;2023-07-16T17:53:13;27.60;61.10
19037;DHT22;9651;49.138;8.900;2023-07-16T17:57:17;27.40;62.00
19037;DHT22;9651;49.138;8.900;2023-07-16T18:01:19;27.30;63.60
19037;DHT22;9651;49.138;8.900;2023-07-16T18:05:22;27.30;64.20
19037;DHT22;9651;49.138;8.900;2023-07-16T18:09:25;27.10;65.60
19037;DHT22;9651;49.138;8.900;2023-07-16T18:13:28;27.00;65.70
19037;DHT22;9651;49.138;8.900;2023-07-16T18:17:30;26.90;65.20
19037;DHT22;9651;49.138;8.900;2023-07-16T18:21:32;26.80;65.60
19037;DHT22;9651;49.138;8.900;2023-07-16T18:25:33;26.60;65.80
19037;DHT22;9651;49.138;8.900;2023-07-16T18:29:37;26.40;67.60
19037;DHT22;9651;49.138;8.900;2023-07-16T18:33:39;26.20;67.70
19037;DHT22;9651;49.138;8.900;2023-07-16T18:37:41;26.10;67.90
19037;DHT22;9651;49.138;8.900;2023-07-16T18:41:42;26.00;68.50
19037;DHT22;9651;49.138;8.900;2023-07-16T18:45:46;25.80;69.20
19037;DHT22;9651;49.138;8.900;2023-07-16T18:49:48;25.80;70.40
19037;DHT22;9651;49.138;8.900;2023-07-16T18:53:50;25.60;71.30
19037;DHT22;9651;49.138;8.900;2023-07-16T18:57:51;25.50;72.30
19037;DHT22;9651;49.138;8.900;2023-07-16T19:01:55;25.30;73.30
19037;DHT22;9651;49.138;8.900;2023-07-16T19:05:56;25.10;74.20
19037;DHT22;9651;49.138;8.900;2023-07-16T19:09:59;25.20;74.80
19037;DHT22;9651;49.138;8.900;2023-07-16T19:14:03;25.00;76.30
19037;DHT22;9651;49.138;8.900;2023-07-16T19:18:07;24.80;78.50
19037;DHT22;9651;49.138;8.900;2023-07-16T19:22:09;24.60;78.70
19037;DHT22;9651;49.138;8.900;2023-07-16T19:26:11;24.40;78.90
19037;DHT22;9651;49.138;8.900;2023-07-16T19:30:13;24.20;80.30
19037;DHT22;9651;49.138;8.900;2023-07-16T19:34:16;24.00;81.40
19037;DHT22;9651;49.138;8.900;2023-07-16T19:38:18;23.80;82.90
19037;DHT22;9651;49.138;8.900;2023-07-16T19:42:19;23.60;84.80
19037;DHT22;9651;49.138;8.900;2023-07-16T19:46:21;23.40;89.00
19037;DHT22;9651;49.138;8.900;2023-07-16T19:50:25;23.30;88.80
19037;DHT22;9651;49.138;8.900;2023-07-16T19:54:26;23.20;90.70
19037;DHT22;9651;49.138;8.900;2023-07-16T19:58:28;23.00;91.80
19037;DHT22;9651;49.138;8.900;2023-07-16T20:02:30;22.90;91.60
19037;DHT22;9651;49.138;8.900;2023-07-16T20:06:34;22.90;93.40
19037;DHT22;9651;49.138;8.900;2023-07-16T20:10:36;22.70;95.60
19037;DHT22;9651;49.138;8.900;2023-07-16T20:14:38;22.50;98.60
19037;DHT22;9651;49.138;8.900;2023-07-16T20:18:39;22.40;99.90
19037;DHT22;9651;49.138;8.900;2023-07-16T20:22:43;22.30;99.90
19037;DHT22;9651;49.138;8.900;2023-07-16T20:26:46;22.20;99.90
19037;DHT22;9651;49.138;8.900;2023-07-16T20:30:48;22.10;99.90
19037;DHT22;9651;49.138;8.900;2023-07-16T20:34:50;21.90;99.90
19037;DHT22;9651;49.138;8.900;2023-07-16T20:38:53;21.80;99.90
19037;DHT22;9651;49.138;8.900;2023-07-16T20:42:55;21.50;99.90
19037;DHT22;9651;49.138;8.900;2023-07-16T20:46:57;21.30;99.90
19037;DHT22;9651;49.138;8.900;2023-07-16T20:50:59;21.20;99.90
19037;DHT22;9651;49.138;8.900;2023-07-16T20:55:03;21.20;99.90
19037;DHT22;9651;49.138;8.900;2023-07-16T20:59:06;21.10;99.90
19037;DHT22;9651;49.138;8.900;2023-07-16T21:03:08;20.90;99.90
19037;DHT22;9651;49.138;8.900;2023-07-16T21:07:09;20.80;99.90
19037;DHT22;9651;49.138;8.900;2023-07-16T21:11:13;20.70;99.90
19037;DHT22;9651;49.138;8.900;2023-07-16T21:15:15;20.60;99.90
19037;DHT22;9651;49.138;8.900;2023-07-16T21:19:17;20.40;99.90
19037;DHT22;9651;49.138;8.900;2023-07-16T21:23:22;20.30;99.90
19037;DHT22;9651;49.138;8.900;2023-07-16T21:27:27;20.30;99.90
19037;DHT22;9651;49.138;8.900;2023-07-16T21:31:29;20.20;99.90
19037;DHT22;9651;49.138;8.900;2023-07-16T21:35:31;20.20;99.90
19037;DHT22;9651;49.138;8.900;2023-07-16T21:39:33;20.10;99.90
19037;DHT22;9651;49.138;8.900;2023-07-16T21:43:36;20.10;99.90
19037;DHT22;9651;49.138;8.900;2023-07-16T21:47:38;20.00;99.90
19037;DHT22;9651;49.138;8.900;2023-07-16T21:51:40;19.90;99.90
19037;DHT22;9651;49.138;8.900;2023-07-16T21:55:42;19.80;99.90
19037;DHT22;9651;49.138;8.900;2023-07-16T21:59:46;19.80;99.90
19037;DHT22;9651;49.138;8.900;2023-07-16T22:03:48;19.70;99.90
19037;DHT22;9651;49.138;8.900;2023-07-16T22:07:50;19.60;99.90
19037;DHT22;9651;49.138;8.900;2023-07-16T22:11:52;19.40;99.90
19037;DHT22;9651;49.138;8.900;2023-07-16T22:15:55;19.40;99.90
19037;DHT22;9651;49.138;8.900;2023-07-16T22:19:57;19.40;99.90
19037;DHT22;9651;49.138;8.900;2023-07-16T22:23:58;19.30;99.90
19037;DHT22;9651;49.138;8.900;2023-07-16T22:28:00;19.20;99.90
19037;DHT22;9651;49.138;8.900;2023-07-16T22:32:04;19.20;99.90
19037;DHT22;9651;49.138;8.900;2023-07-16T22:36:06;19.00;99.90
19037;DHT22;9651;49.138;8.900;2023-07-16T22:40:09;19.00;99.90
19037;DHT22;9651;49.138;8.900;2023-07-16T22:44:11;18.90;99.90
19037;DHT22;9651;49.138;8.900;2023-07-16T22:48:14;18.90;99.90
19037;DHT22;9651;49.138;8.900;2023-07-16T22:52:17;18.90;99.90
19037;DHT22;9651;49.138;8.900;2023-07-16T22:56:19;18.70;99.90
19037;DHT22;9651;49.138;8.900;2023-07-16T23:00:23;18.70;99.90
19037;DHT22;9651;49.138;8.900;2023-07-16T23:04:26;18.70;99.90
19037;DHT22;9651;49.138;8.900;2023-07-16T23:08:28;18.60;99.90
19037;DHT22;9651;49.138;8.900;2023-07-16T23:12:30;18.50;99.90
19037;DHT22;9651;49.138;8.900;2023-07-16T23:16:32;18.50;99.90
19037;DHT22;9651;49.138;8.900;2023-07-16T23:20:35;18.50;99.90
19037;DHT22;9651;49.138;8.900;2023-07-16T23:24:37;18.50;99.90
19037;DHT22;9651;49.138;8.900;2023-07-16T23:28:39;18.40;99.90
19037;DHT22;9651;49.138;8.900;2023-07-16T23:32:42;18.30;99.90
19037;DHT22;9651;49.138;8.900;2023-07-16T23:36:45;18.30;99.90
19037;DHT22;9651;49.138;8.900;2023-07-16T23:40:48;18.30;99.90
19037;DHT22;9651;49.138;8.900;2023-07-16T23:44:50;18.40;99.90
19037;DHT22;9651;49.138;8.900;2023-07-16T23:48:51;18.50;99.90
19037;DHT22;9651;49.138;8.900;2023-07-16T23:52:55;18.60;99.90
19037;DHT22;9651;49.138;8.900;2023-07-16T23:56:58;18.60;99.90
